createdAt,value
2018-09-05T08:18:56.962Z,100.00
2018-09-05T08:21:39.926Z,100.00
2018-09-05T08:23:02.939Z,100.00
2018-09-05T08:33:07.249Z,100.00
2018-09-05T08:34:29.979Z,100.00
2018-09-05T08:35:57.605Z,100.00
2018-09-05T08:37:29.037Z,100.00
2018-09-05T08:38:52.234Z,100.00
2018-09-05T08:41:08.228Z,100.00
2018-09-05T08:42:35.160Z,100.00
2018-09-05T08:44:02.696Z,100.00
2018-09-05T08:45:30.502Z,100.00
2018-09-05T08:47:01.525Z,100.00
2018-09-05T08:48:25.146Z,100.00
2018-09-05T08:49:56.375Z,100.00
2018-09-05T08:51:19.951Z,100.00
2018-09-05T08:52:52.653Z,100.00
2018-09-05T08:54:14.211Z,100.00
2018-09-05T08:55:45.836Z,100.00
2018-09-05T08:57:09.295Z,100.00
2018-09-05T08:58:40.999Z,100.00
2018-09-05T09:00:03.650Z,100.00
2018-09-05T09:01:35.286Z,100.00
2018-09-05T09:03:02.739Z,100.00
2018-09-05T09:04:29.919Z,100.00
2018-09-05T09:05:52.419Z,100.00
2018-09-05T09:07:19.865Z,100.00
2018-09-05T09:08:51.245Z,100.00
2018-09-05T09:10:17.858Z,100.00
2018-09-05T09:11:45.155Z,100.00
2018-09-05T09:13:12.541Z,100.00
2018-09-05T09:14:36.042Z,100.00
2018-09-05T09:16:07.047Z,100.00
2018-09-05T09:17:29.790Z,100.00
2018-09-05T09:18:57.036Z,100.00
2018-09-05T09:20:24.278Z,100.00
2018-09-05T09:21:55.717Z,100.00
2018-09-05T09:23:19.064Z,100.00
2018-09-05T09:24:45.523Z,100.00
2018-09-05T09:26:12.233Z,100.00
2018-09-05T09:27:43.868Z,100.00
2018-09-05T09:29:07.318Z,100.00
2018-09-05T09:30:38.404Z,100.00
2018-09-05T09:32:05.822Z,100.00
2018-09-05T09:33:28.935Z,100.00
2018-09-05T09:34:55.753Z,100.00
2018-09-05T09:36:22.897Z,100.00
2018-09-05T09:37:54.433Z,100.00
2018-09-05T09:39:18.078Z,100.00
2018-09-05T09:40:45.664Z,100.00
2018-09-05T09:42:12.896Z,100.00
2018-09-05T09:43:40.509Z,100.00
2018-09-05T09:45:11.999Z,100.00
2018-09-05T09:46:39.491Z,100.00
2018-09-05T09:48:03.176Z,100.00
2018-09-05T09:49:34.728Z,100.00
2018-09-05T09:50:58.180Z,100.00
2018-09-05T09:52:24.867Z,100.00
2018-09-05T09:53:52.455Z,100.00
2018-09-05T09:55:24.059Z,100.00
2018-09-05T09:56:51.621Z,100.00
2018-09-05T09:58:15.359Z,100.00
2018-09-05T09:59:46.886Z,100.00
2018-09-05T10:01:09.746Z,100.00
2018-09-05T10:02:37.278Z,100.00
2018-09-05T10:04:04.794Z,100.00
2018-09-05T10:05:32.315Z,100.00
2018-09-05T10:06:59.314Z,100.00
2018-09-05T10:08:26.768Z,100.00
2018-09-05T10:09:58.309Z,100.00
2018-09-05T10:11:21.816Z,100.00
2018-09-05T10:12:49.316Z,100.00
2018-09-05T10:14:17.005Z,100.00
2018-09-05T10:15:44.460Z,100.00
2018-09-05T10:17:16.126Z,100.00
2018-09-05T10:18:39.524Z,100.00
2018-09-05T10:20:06.947Z,100.00
2018-09-05T10:21:33.672Z,100.00
2018-09-05T10:23:01.090Z,100.00
2018-09-05T10:24:31.667Z,100.00
2018-09-05T10:25:59.141Z,100.00
2018-09-05T10:27:22.625Z,100.00
2018-09-05T10:28:50.294Z,100.00
2018-09-05T10:30:17.947Z,100.00
2018-09-05T10:31:45.518Z,100.00
2018-09-05T10:33:12.148Z,100.00
2018-09-05T10:34:39.781Z,100.00
2018-09-05T10:36:12.373Z,100.00
2018-09-05T10:37:38.638Z,100.00
2018-09-05T10:39:06.344Z,100.00
2018-09-05T10:40:33.786Z,100.00
2018-09-05T10:42:01.306Z,100.00
2018-09-05T10:43:28.754Z,100.00
2018-09-05T10:44:52.203Z,100.00
2018-09-05T10:46:19.937Z,100.00
2018-09-05T10:47:46.167Z,100.00
2018-09-05T10:49:13.066Z,100.00
2018-09-05T10:50:44.660Z,100.00
2018-09-05T10:52:12.102Z,100.00
2018-09-05T10:53:38.916Z,100.00
2018-09-05T10:55:02.293Z,100.00
2018-09-05T10:56:29.316Z,100.00
2018-09-05T10:58:00.739Z,100.00
2018-09-05T10:59:28.036Z,100.00
2018-09-05T11:00:55.721Z,100.00
2018-09-05T11:02:18.194Z,100.00
2018-09-05T11:03:49.702Z,100.00
2018-09-05T11:05:17.301Z,100.00
2018-09-05T11:06:40.840Z,100.00
2018-09-05T11:08:08.227Z,100.00
2018-09-05T11:09:39.951Z,100.00
2018-09-05T11:11:07.533Z,100.00
2018-09-05T11:12:30.363Z,100.00
2018-09-05T11:14:02.031Z,100.00
2018-09-05T11:15:29.644Z,100.00
2018-09-05T11:16:52.062Z,100.00
2018-09-05T11:18:19.717Z,100.00
2018-09-05T11:19:51.321Z,100.00
2018-09-05T11:21:14.797Z,100.00
2018-09-05T11:22:46.271Z,100.00
2018-09-05T11:24:09.864Z,100.00
2018-09-05T11:25:40.718Z,100.00
2018-09-05T11:27:09.299Z,100.00
2018-09-05T11:28:30.954Z,100.00
2018-09-05T11:30:02.273Z,100.00
2018-09-05T11:31:25.938Z,100.00
2018-09-05T11:32:57.045Z,100.00
2018-09-05T11:34:24.646Z,100.00
2018-09-05T11:35:47.769Z,100.00
2018-09-05T11:37:15.268Z,100.00
2018-09-05T11:38:42.214Z,100.00
2018-09-05T11:40:13.763Z,100.00
2018-09-05T11:41:37.343Z,100.00
2018-09-05T11:43:04.182Z,100.00
2018-09-05T11:44:30.944Z,100.00
2018-09-05T11:45:58.117Z,100.00
2018-09-05T11:47:25.403Z,100.00
2018-09-05T11:48:53.134Z,100.00
2018-09-05T11:50:23.803Z,100.00
2018-09-05T11:51:47.405Z,100.00
2018-09-05T11:53:14.763Z,100.00
2018-09-05T11:54:45.081Z,100.00
2018-09-05T11:56:08.647Z,100.00
2018-09-05T11:57:36.331Z,100.00
2018-09-05T11:59:03.127Z,97.58
2018-09-05T12:00:30.294Z,100.00
2018-09-05T12:02:01.236Z,100.00
2018-09-05T12:03:24.736Z,100.00
2018-09-05T12:04:56.338Z,100.00
2018-09-05T12:06:19.842Z,100.00
2018-09-05T12:07:47.438Z,100.00
2018-09-05T12:09:19.056Z,100.00
2018-09-05T12:10:42.093Z,100.00
2018-09-05T12:12:13.788Z,100.00
2018-09-05T12:13:37.108Z,100.00
2018-09-05T12:15:04.782Z,100.00
2018-09-05T12:16:36.308Z,100.00
2018-09-05T12:18:03.743Z,100.00
2018-09-05T12:19:27.049Z,100.00
2018-09-05T12:20:53.928Z,100.00
2018-09-05T12:22:25.459Z,100.00
2018-09-05T12:23:48.971Z,100.00
2018-09-05T12:25:16.549Z,100.00
2018-09-05T12:26:47.257Z,100.00
2018-09-05T12:28:10.869Z,97.73
2018-09-05T12:29:38.547Z,97.58
2018-09-05T12:31:10.238Z,98.04
2018-09-05T12:32:37.752Z,95.06
2018-09-05T12:34:01.331Z,93.05
2018-09-05T12:35:32.966Z,92.81
2018-09-05T12:36:56.225Z,94.12
2018-09-05T12:38:23.910Z,91.28
2018-09-05T12:39:51.624Z,88.83
2018-09-05T12:41:19.272Z,91.99
2018-09-05T12:42:46.808Z,87.97
2018-09-05T12:44:14.537Z,89.98
2018-09-05T12:45:42.076Z,90.76
2018-09-05T12:47:09.276Z,90.04
2018-09-05T12:48:40.529Z,92.05
2018-09-05T12:50:07.134Z,90.19
2018-09-05T12:51:30.456Z,89.12
2018-09-05T12:52:57.860Z,92.58
2018-09-05T12:54:25.310Z,93.53
2018-09-05T12:55:52.881Z,95.12
2018-09-05T12:57:20.427Z,98.42
2018-09-05T12:58:48.245Z,94.83
2018-09-05T13:00:19.988Z,94.25
2018-09-05T13:01:47.654Z,94.25
2018-09-05T13:03:11.237Z,94.37
2018-09-05T13:04:42.865Z,94.33
2018-09-05T13:06:10.551Z,96.89
2018-09-05T13:07:37.972Z,95.02
2018-09-05T13:09:00.476Z,96.64
2018-09-05T13:10:28.061Z,100.00
2018-09-05T13:11:55.611Z,100.00
2018-09-05T13:13:27.308Z,100.00
2018-09-05T13:14:51.015Z,100.00
2018-09-05T13:16:17.830Z,100.00
2018-09-05T13:17:49.373Z,100.00
2018-09-05T13:19:13.048Z,100.00
2018-09-05T13:20:40.584Z,100.00
2018-09-05T13:22:11.511Z,100.00
2018-09-05T13:23:34.369Z,99.71
2018-09-05T13:25:01.184Z,99.61
2018-09-05T13:26:31.926Z,97.50
2018-09-05T13:27:59.507Z,99.23
2018-09-05T13:29:23.219Z,100.00
2018-09-05T13:30:50.920Z,96.24
2018-09-05T13:32:22.386Z,93.59
2018-09-05T13:33:50.093Z,96.63
2018-09-05T13:35:12.837Z,94.23
2018-09-05T13:36:40.443Z,94.26
2018-09-05T13:38:08.029Z,96.16
2018-09-05T13:39:35.381Z,91.25
2018-09-05T13:41:03.058Z,95.43
2018-09-05T13:42:30.804Z,94.16
2018-09-05T13:43:57.856Z,90.02
2018-09-05T13:45:28.754Z,90.81
2018-09-05T13:46:51.605Z,98.08
2018-09-05T13:48:19.227Z,93.43
2018-09-05T13:49:46.799Z,93.64
2018-09-05T13:51:14.547Z,91.11
2018-09-05T13:52:42.129Z,94.44
2018-09-05T13:54:08.954Z,95.08
2018-09-05T13:55:36.561Z,95.15
2018-09-05T13:57:08.118Z,97.16
2018-09-05T13:58:35.790Z,99.69
2018-09-05T13:59:58.791Z,100.00
2018-09-05T14:01:30.375Z,100.00
2018-09-05T14:02:53.437Z,98.53
2018-09-05T14:04:21.009Z,100.00
2018-09-05T14:05:52.593Z,100.00
2018-09-05T14:07:16.122Z,100.00
2018-09-05T14:08:43.537Z,97.30
2018-09-05T14:10:11.249Z,96.01
2018-09-05T14:11:38.882Z,99.13
2018-09-05T14:13:05.993Z,99.64
2018-09-05T14:14:32.964Z,99.34
2018-09-05T14:16:04.530Z,100.00
2018-09-05T14:17:32.676Z,100.00
2018-09-05T14:18:54.669Z,100.00
2018-09-05T14:20:22.255Z,100.00
2018-09-05T14:21:49.886Z,100.00
2018-09-05T14:23:17.588Z,100.00
2018-09-05T14:24:49.184Z,100.00
2018-09-05T14:26:16.616Z,100.00
2018-09-05T14:27:40.334Z,100.00
2018-09-05T14:29:07.985Z,100.00
2018-09-05T14:30:35.501Z,100.00
2018-09-05T14:32:02.955Z,100.00
2018-09-05T14:33:30.562Z,100.00
2018-09-05T14:34:58.021Z,100.00
2018-09-05T14:36:29.601Z,100.00
2018-09-05T14:37:57.191Z,100.00
2018-09-05T14:39:21.039Z,100.00
2018-09-05T14:40:48.392Z,100.00
2018-09-05T14:42:19.873Z,100.00
2018-09-05T14:43:46.591Z,100.00
2018-09-05T14:45:09.284Z,100.00
2018-09-05T14:46:36.644Z,100.00
2018-09-05T14:48:04.075Z,100.00
2018-09-05T14:49:30.717Z,100.00
2018-09-05T14:50:58.381Z,100.00
2018-09-05T14:52:25.351Z,100.00
2018-09-05T14:53:56.904Z,100.00
2018-09-05T14:55:20.381Z,100.00
2018-09-05T14:56:51.821Z,100.00
2018-09-05T14:58:15.527Z,100.00
2018-09-05T14:59:43.136Z,100.00
2018-09-05T15:01:14.176Z,100.00
2018-09-05T15:02:41.782Z,100.00
2018-09-05T15:04:08.930Z,100.00
2018-09-05T15:05:36.447Z,100.00
2018-09-05T15:06:59.874Z,100.00
2018-09-05T15:08:27.305Z,100.00
2018-09-05T15:09:54.838Z,100.00
2018-09-05T15:11:22.371Z,100.00
2018-09-05T15:12:49.784Z,100.00
2018-09-05T15:14:17.520Z,100.00
2018-09-05T15:15:44.428Z,100.00
2018-09-05T15:17:15.929Z,100.00
2018-09-05T15:18:39.464Z,100.00
2018-09-05T15:20:11.238Z,100.00
2018-09-05T15:21:34.797Z,100.00
2018-09-05T15:23:02.506Z,100.00
2018-09-05T15:24:29.900Z,100.00
2018-09-05T15:26:00.905Z,100.00
2018-09-05T15:27:24.387Z,100.00
2018-09-05T15:28:52.149Z,100.00
2018-09-05T15:30:19.721Z,100.00
2018-09-05T15:31:50.643Z,100.00
2018-09-05T15:33:17.433Z,100.00
2018-09-05T15:34:44.952Z,100.00
2018-09-05T15:36:08.427Z,100.00
2018-09-05T15:37:35.991Z,100.00
2018-09-05T15:39:03.518Z,100.00
2018-09-05T15:40:30.665Z,100.00
2018-09-05T15:41:58.302Z,100.00
2018-09-05T15:43:29.448Z,100.00
2018-09-05T15:44:56.376Z,100.00
2018-09-05T15:46:23.809Z,100.00
2018-09-05T15:47:46.774Z,100.00
2018-09-05T15:49:14.322Z,100.00
2018-09-05T15:50:46.027Z,100.00
2018-09-05T15:52:09.401Z,100.00
2018-09-05T15:53:36.769Z,100.00
2018-09-05T15:55:08.288Z,100.00
2018-09-05T15:56:36.041Z,100.00
2018-09-05T15:57:59.197Z,100.00
2018-09-05T15:59:25.965Z,100.00
2018-09-05T16:00:57.639Z,100.00
2018-09-05T16:02:21.143Z,100.00
2018-09-05T16:03:51.977Z,100.00
2018-09-05T16:05:15.484Z,100.00
2018-09-05T16:06:47.138Z,100.00
2018-09-05T16:08:10.504Z,100.00
2018-09-05T16:09:38.186Z,100.00
2018-09-05T16:11:05.608Z,100.00
2018-09-05T16:12:33.209Z,100.00
2018-09-05T16:14:04.741Z,100.00
2018-09-05T16:15:28.024Z,100.00
2018-09-05T16:16:59.370Z,100.00
2018-09-05T16:18:22.993Z,100.00
2018-09-05T16:19:50.608Z,100.00
2018-09-05T16:21:17.748Z,100.00
2018-09-05T16:22:49.183Z,100.00
2018-09-05T16:24:16.740Z,100.00
2018-09-05T16:25:40.159Z,100.00
2018-09-05T16:27:07.685Z,100.00
2018-09-05T16:28:35.349Z,100.00
2018-09-05T16:30:02.880Z,100.00
2018-09-05T16:31:30.406Z,100.00
2018-09-05T16:33:02.060Z,100.00
2018-09-05T16:34:29.433Z,100.00
2018-09-05T16:35:57.105Z,100.00
2018-09-05T16:37:20.070Z,100.00
2018-09-05T16:38:47.708Z,100.00
2018-09-05T16:40:19.382Z,100.00
2018-09-05T16:41:42.035Z,100.00
2018-09-05T16:43:09.577Z,100.00
2018-09-05T16:44:36.023Z,100.00
2018-09-05T16:46:07.622Z,100.00
2018-09-05T16:47:31.039Z,100.00
2018-09-05T16:48:58.766Z,100.00
2018-09-05T16:50:25.721Z,100.00
2018-09-05T16:51:53.219Z,100.00
2018-09-05T16:53:20.633Z,100.00
2018-09-05T16:54:48.305Z,100.00
2018-09-05T16:56:15.852Z,100.00
2018-09-05T16:57:47.248Z,100.00
2018-09-05T16:59:10.818Z,100.00
2018-09-05T17:00:38.377Z,100.00
2018-09-05T17:02:05.928Z,100.00
2018-09-05T17:03:38.474Z,100.00
2018-09-05T17:05:01.112Z,100.00
2018-09-05T17:06:28.476Z,100.00
2018-09-05T17:07:56.033Z,100.00
2018-09-05T17:09:23.592Z,100.00
2018-09-05T17:10:51.235Z,100.00
2018-09-05T17:12:18.682Z,100.00
2018-09-05T17:13:46.373Z,100.00
2018-09-05T17:15:13.968Z,100.00
2018-09-05T17:16:40.478Z,100.00
2018-09-05T17:18:11.902Z,100.00
2018-09-05T17:19:38.780Z,100.00
2018-09-05T17:21:02.313Z,100.00
2018-09-05T17:22:33.731Z,100.00
2018-09-05T17:24:00.959Z,100.00
2018-09-05T17:25:24.431Z,100.00
2018-09-05T17:26:52.037Z,100.00
2018-09-05T17:28:23.701Z,100.00
2018-09-05T17:29:47.158Z,100.00
2018-09-05T17:31:14.754Z,100.00
2018-09-05T17:32:41.638Z,100.00
2018-09-05T17:34:09.065Z,100.00
2018-09-05T17:35:36.454Z,100.00
2018-09-05T17:37:04.051Z,100.00
2018-09-05T17:38:31.875Z,100.00
2018-09-05T17:39:58.714Z,100.00
2018-09-05T17:41:25.821Z,100.00
2018-09-05T17:42:57.343Z,100.00
2018-09-05T17:44:24.939Z,100.00
2018-09-05T17:45:48.307Z,100.00
2018-09-05T17:47:15.688Z,100.00
2018-09-05T17:48:47.298Z,100.00
2018-09-05T17:50:09.577Z,100.00
2018-09-05T17:51:40.512Z,100.00
2018-09-05T17:53:04.076Z,100.00
2018-09-05T17:54:31.676Z,100.00
2018-09-05T17:56:02.831Z,100.00
2018-09-05T17:57:30.349Z,100.00
2018-09-05T17:58:53.838Z,100.00
2018-09-05T18:00:24.378Z,100.00
2018-09-05T18:01:51.929Z,100.00
2018-09-05T18:03:14.774Z,100.00
2018-09-05T18:04:46.292Z,100.00
2018-09-05T18:06:09.300Z,100.00
2018-09-05T18:07:39.655Z,100.00
2018-09-05T18:09:02.257Z,100.00
2018-09-05T18:10:33.425Z,100.00
2018-09-05T18:11:56.596Z,100.00
2018-09-05T18:13:23.861Z,100.00
2018-09-05T18:14:51.452Z,100.00
2018-09-05T18:16:23.078Z,100.00
2018-09-05T18:17:45.393Z,100.00
2018-09-05T18:19:16.994Z,100.00
2018-09-05T18:20:44.487Z,100.00
2018-09-05T18:22:07.864Z,100.00
2018-09-05T18:23:34.357Z,100.00
2018-09-05T18:25:01.676Z,100.00
2018-09-05T18:26:29.274Z,100.00
2018-09-05T18:27:56.763Z,100.00
2018-09-05T18:29:24.143Z,100.00
2018-09-05T18:30:55.477Z,100.00
2018-09-05T18:32:19.096Z,100.00
2018-09-05T18:33:46.843Z,100.00
2018-09-05T18:35:18.416Z,100.00
2018-09-05T18:36:41.937Z,100.00
2018-09-05T18:38:13.608Z,100.00
2018-09-05T18:39:35.834Z,100.00
2018-09-05T18:41:01.963Z,100.00
2018-09-05T18:42:33.340Z,100.00
2018-09-05T18:43:56.001Z,100.00
2018-09-05T18:45:23.487Z,100.00
2018-09-05T18:46:55.100Z,100.00
2018-09-05T18:48:17.839Z,100.00
2018-09-05T18:49:45.168Z,100.00
2018-09-05T18:51:16.647Z,100.00
2018-09-05T18:52:39.355Z,100.00
2018-09-05T18:54:09.759Z,100.00
2018-09-05T18:55:32.274Z,100.00
2018-09-05T18:56:59.769Z,100.00
2018-09-05T18:58:27.066Z,100.00
2018-09-05T18:59:54.388Z,100.00
2018-09-05T19:01:21.891Z,100.00
2018-09-05T19:02:49.445Z,100.00
2018-09-05T19:04:20.939Z,100.00
2018-09-05T19:05:44.398Z,100.00
2018-09-05T19:07:10.931Z,100.00
2018-09-05T19:08:42.158Z,100.00
2018-09-05T19:10:08.843Z,100.00
2018-09-05T19:11:32.049Z,100.00
2018-09-05T19:13:03.697Z,100.00
2018-09-05T19:14:27.194Z,100.00
2018-09-05T19:15:58.489Z,100.00
2018-09-05T19:17:21.956Z,100.00
2018-09-05T19:18:48.189Z,100.00
2018-09-05T19:20:15.404Z,100.00
2018-09-05T19:21:46.890Z,100.00
2018-09-05T19:23:10.408Z,100.00
2018-09-05T19:24:37.736Z,100.00
2018-09-05T19:26:08.293Z,100.00
